createdAt,value
2023-01-21T00:01:13.497Z,17.27
2023-01-21T00:03:41.538Z,16.80
2023-01-21T00:06:10.037Z,16.98
2023-01-21T00:08:37.847Z,18.08
2023-01-21T00:11:06.674Z,16.67
2023-01-21T00:13:34.742Z,17.35
2023-01-21T00:16:04.236Z,16.30
2023-01-21T00:18:32.666Z,18.13
2023-01-21T00:21:00.371Z,15.43
2023-01-21T00:23:28.272Z,16.92
2023-01-21T00:25:58.934Z,17.15
2023-01-21T00:28:29.148Z,17.63
2023-01-21T00:30:59.261Z,17.60
2023-01-21T00:33:29.605Z,18.55
2023-01-21T00:36:01.459Z,17.73
2023-01-21T00:38:29.772Z,17.60
2023-01-21T00:41:01.998Z,16.55
2023-01-21T00:43:29.698Z,18.08
2023-01-21T00:45:57.691Z,18.00
2023-01-21T00:48:25.829Z,18.35
2023-01-21T00:50:56.084Z,18.42
2023-01-21T00:53:24.451Z,16.75
2023-01-21T00:55:52.225Z,17.90
2023-01-21T00:58:20.302Z,18.45
2023-01-21T01:00:48.162Z,18.48
2023-01-21T01:03:15.850Z,16.88
2023-01-21T01:05:43.587Z,17.83
2023-01-21T01:08:12.628Z,17.23
2023-01-21T01:10:40.282Z,17.50
2023-01-21T01:13:08.008Z,17.80
2023-01-21T01:15:35.711Z,17.73
2023-01-21T01:18:03.472Z,17.80
2023-01-21T01:20:31.159Z,17.95
2023-01-21T01:22:58.864Z,18.05
2023-01-21T01:25:27.902Z,18.13
2023-01-21T01:27:55.571Z,17.63
2023-01-21T01:30:23.240Z,18.60
2023-01-21T01:32:50.925Z,19.02
2023-01-21T01:35:18.624Z,18.67
2023-01-21T01:37:46.307Z,18.73
2023-01-21T01:40:15.042Z,19.27
2023-01-21T01:42:44.243Z,19.40
2023-01-21T01:45:20.171Z,19.38
2023-01-21T01:47:51.087Z,17.80
2023-01-21T01:50:20.964Z,17.90
2023-01-21T01:52:48.782Z,19.42
2023-01-21T01:55:16.604Z,19.88
2023-01-21T01:57:50.982Z,19.33
2023-01-21T02:00:21.170Z,19.67
2023-01-21T02:03:02.985Z,19.70
2023-01-21T02:05:30.734Z,18.15
2023-01-21T02:07:58.704Z,18.05
2023-01-21T02:10:26.425Z,20.05
2023-01-21T02:12:55.673Z,18.80
2023-01-21T02:15:25.938Z,19.55
2023-01-21T02:18:03.403Z,19.75
2023-01-21T02:21:03.437Z,20.52
2023-01-21T02:23:52.124Z,21.27
2023-01-21T02:27:01.431Z,19.55
2023-01-21T02:29:55.704Z,20.90
2023-01-21T02:32:43.683Z,20.60
2023-01-21T02:35:19.597Z,20.77
2023-01-21T02:37:54.251Z,19.23
2023-01-21T02:40:30.183Z,20.55
2023-01-21T02:43:07.522Z,21.67
2023-01-21T02:45:42.395Z,20.92
2023-01-21T02:48:17.484Z,20.38
2023-01-21T02:50:49.302Z,20.42
2023-01-21T02:53:25.990Z,22.08
2023-01-21T02:55:54.730Z,20.85
2023-01-21T02:58:29.958Z,21.08
2023-01-21T03:01:12.389Z,22.42
2023-01-21T03:04:04.557Z,20.55
2023-01-21T03:07:00.666Z,20.52
2023-01-21T03:09:31.091Z,22.83
2023-01-21T03:12:09.000Z,21.55
2023-01-21T03:14:58.803Z,21.15
2023-01-21T03:17:35.932Z,22.10
2023-01-21T03:20:09.678Z,23.23
2023-01-21T03:22:40.175Z,21.30
2023-01-21T03:25:10.143Z,23.35
2023-01-21T03:27:41.634Z,23.45
2023-01-21T03:30:14.230Z,23.70
2023-01-21T03:32:44.627Z,22.63
2023-01-21T03:35:17.391Z,22.85
2023-01-21T03:37:49.734Z,22.33
2023-01-21T03:40:22.935Z,22.25
2023-01-21T03:42:52.638Z,23.05
2023-01-21T03:45:30.974Z,22.75
2023-01-21T03:48:02.262Z,23.00
2023-01-21T03:50:37.407Z,23.33
2023-01-21T03:53:07.976Z,23.70
2023-01-21T03:55:37.150Z,22.80
2023-01-21T03:58:04.871Z,24.23
2023-01-21T04:00:32.600Z,24.33
2023-01-21T04:03:00.319Z,23.60
2023-01-21T04:05:27.989Z,22.88
2023-01-21T04:07:55.666Z,23.58
2023-01-21T04:10:24.714Z,23.42
2023-01-21T04:12:52.427Z,23.10
2023-01-21T04:15:20.148Z,23.10
2023-01-21T04:17:47.901Z,24.38
2023-01-21T04:20:16.029Z,23.33
2023-01-21T04:22:43.891Z,23.88
2023-01-21T04:25:11.604Z,23.75
2023-01-21T04:27:40.640Z,24.25
2023-01-21T04:30:09.708Z,23.42
2023-01-21T04:32:37.455Z,24.60
2023-01-21T04:35:05.662Z,23.40
2023-01-21T04:37:33.443Z,24.15
2023-01-21T04:40:01.131Z,23.17
2023-01-21T04:42:28.852Z,23.60
2023-01-21T04:44:57.896Z,25.77
2023-01-21T04:47:25.661Z,24.02
2023-01-21T04:49:53.592Z,22.95
2023-01-21T04:52:21.374Z,24.10
2023-01-21T04:54:49.037Z,22.92
2023-01-21T04:57:16.744Z,24.08
2023-01-21T04:59:44.452Z,25.80
2023-01-21T05:02:14.538Z,23.20
2023-01-21T05:04:42.341Z,24.00
2023-01-21T05:07:11.702Z,24.25
2023-01-21T05:09:39.387Z,26.55
2023-01-21T05:12:07.777Z,21.85
2023-01-21T05:14:35.556Z,22.75
2023-01-21T05:17:03.478Z,24.80
2023-01-21T05:19:32.624Z,23.95
2023-01-21T05:22:00.381Z,23.80
2023-01-21T05:24:28.041Z,23.45
2023-01-21T05:26:55.914Z,24.20
2023-01-21T05:29:23.587Z,23.05
2023-01-21T05:31:51.372Z,22.75
2023-01-21T05:34:19.151Z,22.70
2023-01-21T05:36:48.263Z,23.27
2023-01-21T05:39:16.211Z,23.25
2023-01-21T05:41:43.948Z,24.42
2023-01-21T05:44:11.871Z,24.48
2023-01-21T05:46:39.615Z,23.33
2023-01-21T05:49:07.359Z,23.83
2023-01-21T05:51:35.087Z,23.83
2023-01-21T05:54:04.218Z,23.20
2023-01-21T05:56:31.917Z,24.27
2023-01-21T05:58:59.662Z,23.48
2023-01-21T06:01:27.481Z,22.80
2023-01-21T06:03:55.263Z,22.02
2023-01-21T06:06:23.027Z,22.95
2023-01-21T06:08:50.730Z,22.67
2023-01-21T06:11:19.873Z,21.95
2023-01-21T06:13:47.582Z,22.40
2023-01-21T06:16:15.273Z,22.70
2023-01-21T06:18:42.993Z,22.38
2023-01-21T06:21:10.702Z,22.95
2023-01-21T06:23:38.426Z,23.13
2023-01-21T06:26:06.462Z,22.58
2023-01-21T06:28:35.531Z,24.15
2023-01-21T06:31:03.995Z,22.23
2023-01-21T06:33:31.753Z,22.38
2023-01-21T06:35:59.444Z,22.70
2023-01-21T06:38:27.144Z,20.90
2023-01-21T06:40:54.881Z,22.15
2023-01-21T06:43:22.575Z,21.77
2023-01-21T06:45:51.621Z,20.85
2023-01-21T06:48:19.462Z,21.95
2023-01-21T06:50:47.161Z,21.23
2023-01-21T06:53:15.651Z,21.08
2023-01-21T06:55:43.393Z,20.65
2023-01-21T06:58:11.132Z,20.30
2023-01-21T07:00:38.856Z,22.63
2023-01-21T07:03:07.948Z,22.17
2023-01-21T07:05:35.690Z,21.58
2023-01-21T07:08:03.351Z,21.67
2023-01-21T07:10:31.109Z,23.50
2023-01-21T07:12:58.851Z,21.77
2023-01-21T07:15:30.825Z,24.65
2023-01-21T07:17:58.588Z,22.33
2023-01-21T07:20:27.679Z,21.23
2023-01-21T07:22:55.427Z,22.48
2023-01-21T07:25:23.190Z,22.92
2023-01-21T07:27:50.911Z,23.25
2023-01-21T07:30:20.092Z,23.63
2023-01-21T07:32:48.571Z,23.35
2023-01-21T07:35:16.607Z,22.42
2023-01-21T07:37:45.867Z,22.35
2023-01-21T07:40:14.598Z,24.17
2023-01-21T07:42:42.288Z,21.92
2023-01-21T07:45:10.850Z,23.42
2023-01-21T07:47:38.525Z,21.10
2023-01-21T07:50:08.759Z,22.08
2023-01-21T07:52:36.693Z,22.73
2023-01-21T07:55:07.950Z,23.45
2023-01-21T07:57:36.341Z,22.13
2023-01-21T08:00:05.310Z,22.33
2023-01-21T08:02:33.211Z,23.30
2023-01-21T08:05:00.986Z,23.65
2023-01-21T08:07:28.721Z,21.63
2023-01-21T08:09:56.401Z,21.83
2023-01-21T08:12:27.247Z,24.05
2023-01-21T08:14:55.303Z,24.60
2023-01-21T08:17:23.004Z,24.33
2023-01-21T08:19:50.659Z,22.35
2023-01-21T08:22:18.338Z,22.27
2023-01-21T08:24:46.047Z,22.42
2023-01-21T08:27:13.781Z,24.27
2023-01-21T08:29:42.926Z,23.25
2023-01-21T08:32:11.167Z,22.90
2023-01-21T08:34:38.976Z,23.25
2023-01-21T08:37:06.703Z,23.25
2023-01-21T08:39:34.511Z,24.73
2023-01-21T08:42:02.218Z,24.15
2023-01-21T08:44:29.887Z,22.48
2023-01-21T08:46:58.976Z,24.20
2023-01-21T08:49:26.655Z,24.98
2023-01-21T08:51:54.613Z,23.33
2023-01-21T08:54:22.302Z,24.15
2023-01-21T08:56:50.017Z,23.63
2023-01-21T08:59:17.751Z,24.27
2023-01-21T09:01:45.463Z,24.60
2023-01-21T09:04:14.606Z,25.33
2023-01-21T09:06:42.315Z,25.08
2023-01-21T09:09:12.027Z,23.77
2023-01-21T09:11:39.797Z,25.63
2023-01-21T09:14:07.511Z,25.50
2023-01-21T09:16:36.403Z,25.02
2023-01-21T09:19:04.666Z,26.27
2023-01-21T09:21:35.827Z,25.83
2023-01-21T09:24:03.763Z,24.90
2023-01-21T09:26:31.419Z,25.88
2023-01-21T09:29:01.009Z,24.67
2023-01-21T09:31:31.002Z,25.35
2023-01-21T09:34:00.616Z,23.90
2023-01-21T09:36:30.846Z,27.23
2023-01-21T09:39:00.422Z,24.27
2023-01-21T09:41:31.295Z,25.27
2023-01-21T09:44:13.900Z,25.40
2023-01-21T09:46:47.954Z,24.13
2023-01-21T09:49:20.874Z,25.55
2023-01-21T09:51:57.761Z,25.13
2023-01-21T09:54:29.465Z,25.63
2023-01-21T09:57:18.126Z,25.02
2023-01-21T10:00:01.211Z,25.70
2023-01-21T10:02:49.812Z,25.98
2023-01-21T10:06:02.007Z,23.42
2023-01-21T10:08:38.412Z,25.38
2023-01-21T10:11:22.210Z,24.67
2023-01-21T10:14:06.064Z,24.77
2023-01-21T10:16:43.827Z,24.70
2023-01-21T10:19:15.819Z,25.85
2023-01-21T10:21:51.817Z,26.75
2023-01-21T10:24:25.515Z,27.07
2023-01-21T10:26:55.556Z,26.30
2023-01-21T10:29:26.730Z,25.88
2023-01-21T10:31:59.381Z,24.75
2023-01-21T10:34:31.578Z,26.05
2023-01-21T10:37:09.605Z,26.58
2023-01-21T10:39:46.292Z,24.77
2023-01-21T10:42:52.745Z,25.77
2023-01-21T10:45:41.522Z,24.75
2023-01-21T10:48:16.682Z,25.80
2023-01-21T10:50:51.287Z,23.42
2023-01-21T10:53:27.294Z,24.40
2023-01-21T10:56:06.922Z,25.33
2023-01-21T10:58:38.795Z,25.50
2023-01-21T11:01:13.620Z,24.63
2023-01-21T11:03:44.898Z,23.38
2023-01-21T11:06:15.000Z,26.58
2023-01-21T11:08:46.030Z,24.13
2023-01-21T11:11:15.043Z,27.33
2023-01-21T11:13:43.062Z,24.38
2023-01-21T11:16:12.231Z,26.23
2023-01-21T11:18:42.387Z,25.38
2023-01-21T11:21:18.527Z,24.45
2023-01-21T11:23:54.496Z,25.90
2023-01-21T11:26:25.439Z,23.53
2023-01-21T11:29:12.908Z,25.08
2023-01-21T11:31:44.537Z,24.60
2023-01-21T11:34:16.059Z,26.27
2023-01-21T11:36:58.907Z,26.35
2023-01-21T11:39:27.987Z,28.13
2023-01-21T11:41:57.359Z,25.00
2023-01-21T11:44:25.594Z,22.98
2023-01-21T11:46:54.764Z,24.83
2023-01-21T11:49:28.285Z,25.92
2023-01-21T11:52:15.009Z,25.33
2023-01-21T11:54:42.866Z,25.10
2023-01-21T11:57:25.510Z,23.63
2023-01-21T11:59:57.882Z,22.83
2023-01-21T12:02:31.322Z,24.42
2023-01-21T12:05:03.035Z,25.77
2023-01-21T12:07:33.358Z,24.80
2023-01-21T12:10:08.795Z,24.42
2023-01-21T12:12:51.808Z,22.65
2023-01-21T12:15:33.334Z,23.98
2023-01-21T12:18:14.491Z,23.48
2023-01-21T12:20:52.807Z,24.23
2023-01-21T12:23:38.158Z,24.67
2023-01-21T12:26:18.403Z,23.30
2023-01-21T12:29:03.560Z,23.70
2023-01-21T12:31:35.113Z,24.05
2023-01-21T12:34:10.785Z,22.85
2023-01-21T12:36:45.959Z,22.65
2023-01-21T12:39:19.630Z,22.73
2023-01-21T12:41:53.186Z,22.77
2023-01-21T12:44:28.788Z,22.40
2023-01-21T12:47:01.756Z,22.63
2023-01-21T12:49:47.998Z,22.50
2023-01-21T12:52:23.429Z,21.15
2023-01-21T12:54:58.735Z,22.27
2023-01-21T12:57:30.934Z,21.27
2023-01-21T13:00:04.392Z,22.67
2023-01-21T13:02:36.875Z,21.45
2023-01-21T13:05:13.715Z,21.98
2023-01-21T13:07:47.142Z,21.92
2023-01-21T13:10:20.568Z,22.55
2023-01-21T13:12:52.626Z,21.52
2023-01-21T13:15:23.411Z,21.65
2023-01-21T13:17:54.745Z,22.17
2023-01-21T13:20:24.795Z,21.58
2023-01-21T13:23:02.934Z,22.52
2023-01-21T13:25:38.677Z,22.95
2023-01-21T13:28:14.467Z,20.20
2023-01-21T13:30:47.351Z,21.85
2023-01-21T13:33:28.701Z,20.15
2023-01-21T13:36:12.520Z,20.90
2023-01-21T13:38:46.580Z,20.40
2023-01-21T13:41:25.111Z,21.25
2023-01-21T13:44:13.411Z,21.33
2023-01-21T13:46:52.679Z,22.10
2023-01-21T13:49:49.991Z,18.38
2023-01-21T13:52:24.255Z,20.08
2023-01-21T13:55:13.005Z,20.25
2023-01-21T13:58:02.762Z,19.83
2023-01-21T14:00:34.681Z,20.38
2023-01-21T14:03:10.104Z,19.27
2023-01-21T14:05:42.092Z,20.67
2023-01-21T14:08:16.243Z,19.98
2023-01-21T14:10:49.533Z,19.70
2023-01-21T14:13:55.575Z,20.73
2023-01-21T14:16:47.649Z,19.33
2023-01-21T14:19:32.007Z,19.35
2023-01-21T14:22:20.074Z,19.85
2023-01-21T14:25:02.972Z,17.80
2023-01-21T14:27:42.987Z,18.45
2023-01-21T14:30:16.996Z,18.20
2023-01-21T14:32:49.870Z,18.70
2023-01-21T14:35:23.747Z,16.85
2023-01-21T14:38:04.193Z,15.40
2023-01-21T14:40:35.641Z,15.32
2023-01-21T14:43:03.520Z,14.82
2023-01-21T14:45:53.198Z,13.23
2023-01-21T14:48:29.738Z,14.02
2023-01-21T14:51:11.817Z,12.50
2023-01-21T14:53:48.945Z,12.23
2023-01-21T14:56:31.683Z,13.02
2023-01-21T14:59:02.469Z,13.07
2023-01-21T15:01:38.618Z,12.40
2023-01-21T15:04:20.079Z,12.20
2023-01-21T15:06:50.323Z,11.82
2023-01-21T15:09:24.356Z,11.85
2023-01-21T15:11:59.688Z,12.65
2023-01-21T15:14:30.195Z,11.60
2023-01-21T15:16:57.943Z,12.02
2023-01-21T15:19:28.988Z,11.90
2023-01-21T15:22:21.054Z,11.55
2023-01-21T15:25:25.077Z,12.68
2023-01-21T15:28:43.673Z,13.43
2023-01-21T15:31:34.522Z,12.30
2023-01-21T15:34:07.506Z,11.93
2023-01-21T15:36:44.281Z,12.05
2023-01-21T15:39:15.720Z,11.23
2023-01-21T15:41:55.768Z,12.60
2023-01-21T15:44:41.617Z,12.68
2023-01-21T15:47:25.828Z,11.48
2023-01-21T15:50:02.796Z,12.05
2023-01-21T15:55:22.422Z,11.10
2023-01-21T15:57:57.927Z,12.63
2023-01-21T16:00:32.897Z,12.35
2023-01-21T16:03:11.684Z,13.00
2023-01-21T16:05:48.577Z,12.95
2023-01-21T16:08:27.319Z,12.48
2023-01-21T16:11:07.892Z,12.52
2023-01-21T16:13:48.103Z,11.75
2023-01-21T16:16:26.217Z,12.40
2023-01-21T16:19:00.766Z,12.80
2023-01-21T16:21:33.804Z,12.05
2023-01-21T16:24:06.744Z,12.23
2023-01-21T16:26:34.675Z,12.40
2023-01-21T16:29:02.655Z,13.95
2023-01-21T16:31:30.472Z,14.00
2023-01-21T16:33:59.598Z,14.27
2023-01-21T16:36:27.388Z,13.25
2023-01-21T16:38:55.152Z,12.88
2023-01-21T16:41:25.621Z,14.05
2023-01-21T16:43:56.309Z,13.68
2023-01-21T16:46:27.183Z,12.70
2023-01-21T16:48:58.281Z,12.27
2023-01-21T16:51:32.243Z,13.52
2023-01-21T16:54:25.058Z,13.05
2023-01-21T16:56:55.380Z,13.55
2023-01-21T16:59:27.329Z,13.32
2023-01-21T17:01:56.086Z,12.27
2023-01-21T17:04:24.171Z,12.63
2023-01-21T17:06:53.964Z,12.73
2023-01-21T17:09:29.511Z,12.60
2023-01-21T17:11:59.422Z,13.00
2023-01-21T17:14:30.930Z,13.13
2023-01-21T17:17:01.221Z,12.40
2023-01-21T17:19:33.739Z,13.23
2023-01-21T17:22:11.190Z,12.75
2023-01-21T17:24:44.098Z,14.27
2023-01-21T17:27:17.445Z,13.10
2023-01-21T17:29:45.529Z,12.20
2023-01-21T17:32:26.445Z,12.50
2023-01-21T17:35:10.927Z,13.02
2023-01-21T17:37:45.574Z,12.63
2023-01-21T17:40:27.705Z,13.63
2023-01-21T17:42:56.168Z,13.55
2023-01-21T17:45:30.063Z,12.55
2023-01-21T17:48:14.883Z,13.10
2023-01-21T17:50:47.136Z,12.80
2023-01-21T17:53:23.240Z,13.40
2023-01-21T17:55:59.936Z,13.00
2023-01-21T17:58:45.793Z,12.13
2023-01-21T18:01:14.796Z,13.18
2023-01-21T18:03:42.650Z,13.15
2023-01-21T18:06:17.646Z,13.13
2023-01-21T18:08:47.086Z,15.38
2023-01-21T18:11:16.646Z,14.60
2023-01-21T18:13:44.653Z,14.82
2023-01-21T18:16:12.453Z,16.05
2023-01-21T18:18:40.389Z,14.93
2023-01-21T18:21:15.945Z,15.45
2023-01-21T18:23:43.729Z,16.75
2023-01-21T18:26:18.840Z,17.38
2023-01-21T18:28:46.576Z,15.88
2023-01-21T18:31:14.474Z,17.42
2023-01-21T18:33:42.217Z,18.83
2023-01-21T18:36:12.292Z,17.90
2023-01-21T18:38:39.995Z,18.88
2023-01-21T18:41:08.817Z,17.95
2023-01-21T18:43:38.096Z,18.58
2023-01-21T18:46:12.160Z,18.42
2023-01-21T18:48:39.929Z,18.30
2023-01-21T18:51:07.648Z,19.58
2023-01-21T18:53:35.475Z,18.88
2023-01-21T18:56:06.217Z,20.50
2023-01-21T18:58:34.084Z,20.15
2023-01-21T19:01:10.983Z,18.83
2023-01-21T19:03:48.714Z,20.23
2023-01-21T19:06:17.228Z,19.00
2023-01-21T19:08:48.540Z,18.70
2023-01-21T19:11:16.745Z,17.88
2023-01-21T19:13:44.503Z,18.40
2023-01-21T19:16:17.164Z,18.73
2023-01-21T19:18:45.050Z,18.38
2023-01-21T19:21:13.144Z,17.42
2023-01-21T19:23:41.138Z,18.48
2023-01-21T19:26:13.708Z,18.75
2023-01-21T19:28:41.693Z,19.27
2023-01-21T19:31:09.457Z,17.98
2023-01-21T19:33:39.816Z,18.80
2023-01-21T19:36:15.011Z,18.63
2023-01-21T19:38:44.118Z,17.55
2023-01-21T19:41:11.992Z,18.13
2023-01-21T19:43:41.202Z,17.77
2023-01-21T19:46:12.193Z,20.00
2023-01-21T19:48:41.845Z,17.77
2023-01-21T19:51:09.896Z,18.40
2023-01-21T19:53:37.696Z,18.83
2023-01-21T19:56:05.942Z,18.35
2023-01-21T19:58:34.070Z,17.17
2023-01-21T20:01:01.824Z,16.88
2023-01-21T20:03:30.605Z,18.88
2023-01-21T20:06:03.137Z,16.83
2023-01-21T20:08:33.266Z,17.00
2023-01-21T20:11:01.010Z,18.35
2023-01-21T20:13:32.145Z,18.20
2023-01-21T20:16:03.598Z,18.58
2023-01-21T20:18:33.392Z,17.02
2023-01-21T20:21:02.501Z,17.90
2023-01-21T20:23:32.545Z,18.77
2023-01-21T20:26:01.125Z,17.20
2023-01-21T20:28:35.729Z,17.52
2023-01-21T20:31:06.513Z,18.60
2023-01-21T20:33:35.419Z,16.92
2023-01-21T20:36:07.170Z,18.38
2023-01-21T20:38:37.147Z,17.15
2023-01-21T20:41:06.205Z,16.92
2023-01-21T20:43:33.967Z,18.58
2023-01-21T20:46:04.006Z,17.27
2023-01-21T20:48:34.653Z,17.17
2023-01-21T20:51:04.003Z,16.45
2023-01-21T20:53:32.008Z,17.95
2023-01-21T20:56:03.029Z,17.42
2023-01-21T20:58:31.414Z,16.83
2023-01-21T21:00:59.203Z,17.65
2023-01-21T21:03:27.045Z,17.90
2023-01-21T21:05:55.243Z,16.08
2023-01-21T21:08:24.969Z,16.73
2023-01-21T21:10:52.926Z,17.58
2023-01-21T21:13:20.658Z,16.00
2023-01-21T21:15:50.596Z,16.55
2023-01-21T21:18:18.304Z,16.40
2023-01-21T21:20:46.083Z,17.80
2023-01-21T21:23:15.562Z,18.20
2023-01-21T21:25:46.202Z,16.63
2023-01-21T21:28:15.847Z,17.83
2023-01-21T21:30:44.098Z,18.05
2023-01-21T21:33:18.054Z,17.13
2023-01-21T21:35:46.832Z,17.30
2023-01-21T21:38:16.894Z,17.20
2023-01-21T21:40:47.721Z,18.60
2023-01-21T21:43:32.719Z,16.67
2023-01-21T21:46:22.871Z,17.25
2023-01-21T21:48:52.026Z,17.77
2023-01-21T21:51:21.739Z,17.48
2023-01-21T21:53:49.996Z,17.92
2023-01-21T21:56:20.746Z,17.17
2023-01-21T21:58:49.535Z,18.13
2023-01-21T22:01:19.467Z,17.52
2023-01-21T22:03:47.309Z,16.38
2023-01-21T22:06:17.667Z,16.20
2023-01-21T22:08:45.654Z,16.48
2023-01-21T22:11:17.605Z,17.10
2023-01-21T22:13:50.116Z,16.20
2023-01-21T22:16:20.518Z,15.98
2023-01-21T22:18:48.644Z,15.10
2023-01-21T22:21:18.212Z,15.52
2023-01-21T22:23:46.275Z,16.58
2023-01-21T22:26:16.593Z,16.65
2023-01-21T22:28:46.255Z,17.35
2023-01-21T22:31:16.539Z,17.48
2023-01-21T22:33:44.630Z,16.85
2023-01-21T22:36:14.964Z,16.80
2023-01-21T22:38:43.643Z,16.58
2023-01-21T22:41:12.816Z,16.08
2023-01-21T22:43:41.846Z,17.73
2023-01-21T22:46:13.385Z,15.95
2023-01-21T22:48:41.512Z,17.10
2023-01-21T22:51:12.306Z,17.33
2023-01-21T22:53:40.827Z,16.30
2023-01-21T22:56:08.974Z,16.45
2023-01-21T22:58:37.002Z,17.48
2023-01-21T23:01:06.180Z,17.35
2023-01-21T23:03:35.363Z,17.23
2023-01-21T23:06:04.917Z,17.27
2023-01-21T23:08:32.935Z,18.23
2023-01-21T23:11:01.747Z,17.08
2023-01-21T23:13:29.516Z,17.38
2023-01-21T23:15:57.281Z,17.80
2023-01-21T23:18:26.863Z,16.85
2023-01-21T23:20:56.255Z,18.42
2023-01-21T23:23:24.890Z,17.52
2023-01-21T23:25:52.772Z,17.15
2023-01-21T23:28:20.411Z,17.08
2023-01-21T23:30:48.196Z,16.67
2023-01-21T23:33:16.130Z,16.25
2023-01-21T23:35:43.854Z,16.20
2023-01-21T23:38:12.982Z,15.88
2023-01-21T23:40:40.842Z,16.85
2023-01-21T23:43:08.587Z,16.10
2023-01-21T23:45:36.291Z,16.02
2023-01-21T23:48:04.262Z,15.70
2023-01-21T23:50:32.010Z,14.93
2023-01-21T23:52:59.740Z,14.82
2023-01-21T23:55:28.840Z,13.93
2023-01-21T23:57:57.288Z,14.23
